ilmateenistus.ee keskkonnaagentuur.ee
EETN Tallinna lennuväli
FTEO31 EETN 161100
TAF EETN 161120Z 1612/1712 28018G28KT 9999 SCT025CB BKN040 TEMPO
    1612/1702 3000 SHRA BKN010 SCT020CB BKN030 PROB30 TEMPO 1612/1616
    TSRA BECMG 1615/1617 34012KT PROB40 TEMPO 1702/1709 5000 SHRA=

SPECI EETN 161235Z 28020G30KT 9999 FEW025CB BKN040 13/08 Q0993=
Tallinna lennuväli
EEKA Kärdla lennuväli
FCEO32 EETN 161200
TAF EEKA 161200Z 1613/1619 29015G25KT 9999 SCT020CB SCT035 TEMPO
    1613/1619 3000 SHRA SCT012 BKN020CB PROB30 TEMPO 1613/1619 TSRA TEMPO
    1616/1619 31016G30KT=

METAR EEKA 161150Z 29009KT 9999 SCT023CB 14/10 Q0996=
Kärdla lennuväli
EEKE Kuressaare lennuväli
METAR EEKE 161150Z 30015G26KT 250V330 9999 SCT033 BKN045 13/07 Q0998=
Kuressaare lennuväli
EEPU Pärnu lennuväli
METAR EEPU 161150Z 27014G25KT 240V310 9999 FEW008 BKN020 12/09 Q0996 RESHRA=
Pärnu lennuväli
EETU Tartu lennuväli
METAR EETU 161220Z 26016G29KT 6000 -SHRA SCT011 FEW032CB BKN049 12/09 Q0994=
Tartu lennuväli
EEEI Ämari lennuväli
METAR EEEI 161150Z 27017G27KT 9999 FEW025CB SCT027 14/09 Q0994 TEMPO 4000 SHRA=
Ämari lennuväli

Uudised

Lisainfo 24h: 666 0932 aviamet@envir.ee